This is the latest recevied weather packets stored in our database for station/object W4NDF-13. If no packets are shown the sender has not sent any weather packets the latest 10 day(s).
| Time | Temp. | Humidity | Pressure | Rain* | Wind** | Luminosity | Snow |
|---|---|---|---|---|---|---|---|
| 1777808963 | 12.22° C | 86% | 1021.8 hPa | 0 mm | - | 27 W/m² | - |
| 1777808660 | 11.67° C | 86% | 1021.7 hPa | 0 mm | - | 21 W/m² | - |
| 1777808356 | 11.67° C | 87% | 1021.5 hPa | 0 mm | - | 18 W/m² | - |
| 1777808055 | 11.67° C | 87% | 1021.3 hPa | 0 mm | - | 14 W/m² | - |
| 1777807752 | 11.11° C | 87% | 1021.3 hPa | 0 mm | - | 10 W/m² | - |
| 1777807450 | 11.11° C | 88% | 1021.3 hPa | 0 mm | - | 7 W/m² | - |
| 1777807145 | 10.56° C | 88% | 1021.2 hPa | 0 mm | - | 4 W/m² | - |
| 1777806843 | 10.56° C | 87% | 1021.3 hPa | 0 mm | - | 2 W/m² | - |
| 1777806539 | 11.11° C | 86% | 1021.4 hPa | 0 mm | - | 1 W/m² | - |
| 1777806235 | 11.67° C | 85% | 1021.3 hPa | 0 mm | - | 0 W/m² | - |
| 1777805932 | 11.67° C | 85% | 1021.3 hPa | 0 mm | - | 0 W/m² | - |
| 1777805629 | 11.67° C | 85% | 1021.3 hPa | 0 mm | - | 0 W/m² | - |
| 1777805327 | 11.67° C | 84% | 1021.2 hPa | 0 mm | - | 0 W/m² | - |
| 1777805024 | 11.67° C | 84% | 1021.4 hPa | 0 mm | - | 0 W/m² | - |
| 1777804721 | 12.22° C | 83% | 1021.4 hPa | 0 mm | - | 0 W/m² | - |
| 1777804419 | 12.22° C | 83% | 1021.3 hPa | 0 mm | - | 0 W/m² | - |
| 1777804116 | 12.22° C | 82% | 1021.2 hPa | 0 mm | - | 0 W/m² | - |
| 1777803813 | 12.22° C | 83% | 1021.3 hPa | 0 mm | - | 0 W/m² | - |
| 1777803508 | 11.67° C | 82% | 1021.3 hPa | 0 mm | - | 0 W/m² | - |
| 1777803207 | 12.22° C | 81% | 1021.3 hPa | 0 mm | - | 0 W/m² | - |
| 1777802903 | 12.78° C | 80% | 1021.5 hPa | 0 mm | - | 0 W/m² | - |
| 1777802601 | 12.78° C | 80% | 1021.4 hPa | 0 mm | - | 0 W/m² | - |
| 1777802299 | 12.78° C | 78% | 1021.5 hPa | 0 mm | - | 0 W/m² | - |
| 1777801997 | 13.33° C | 77% | 1021.3 hPa | 0 mm | - | 0 W/m² | - |
| 1777801694 | 13.33° C | 76% | 1021 hPa | 0 mm | - | 0 W/m² | - |
* Rain latest hour (hover to see other rain measurements)
** Current wind speed in m/s (hover to see current wind gust speed)